sensor_id;sensor_type;location;lat;lon;timestamp;P1;durP1;ratioP1;P2;durP2;ratioP2
77085;SDS011;66014;53.134;18.006;2023-04-30T00:01:10;14.30;;;7.60;;
77085;SDS011;66014;53.134;18.006;2023-04-30T00:03:36;12.80;;;7.20;;
77085;SDS011;66014;53.134;18.006;2023-04-30T00:06:02;13.90;;;7.20;;
77085;SDS011;66014;53.134;18.006;2023-04-30T00:08:28;14.30;;;7.50;;
77085;SDS011;66014;53.134;18.006;2023-04-30T00:10:54;14.90;;;8.00;;
77085;SDS011;66014;53.134;18.006;2023-04-30T00:13:20;15.70;;;8.70;;
77085;SDS011;66014;53.134;18.006;2023-04-30T00:15:46;14.40;;;8.00;;
77085;SDS011;66014;53.134;18.006;2023-04-30T00:18:12;17.80;;;8.90;;
77085;SDS011;66014;53.134;18.006;2023-04-30T00:20:38;15.10;;;7.80;;
77085;SDS011;66014;53.134;18.006;2023-04-30T00:23:04;14.90;;;7.40;;
77085;SDS011;66014;53.134;18.006;2023-04-30T00:25:29;14.40;;;8.20;;
77085;SDS011;66014;53.134;18.006;2023-04-30T00:27:55;11.30;;;6.70;;
77085;SDS011;66014;53.134;18.006;2023-04-30T00:30:21;12.60;;;6.50;;
77085;SDS011;66014;53.134;18.006;2023-04-30T00:32:47;11.90;;;6.20;;
77085;SDS011;66014;53.134;18.006;2023-04-30T00:35:13;12.50;;;6.90;;
77085;SDS011;66014;53.134;18.006;2023-04-30T00:37:39;15.30;;;8.10;;
77085;SDS011;66014;53.134;18.006;2023-04-30T00:40:05;17.90;;;8.60;;
77085;SDS011;66014;53.134;18.006;2023-04-30T00:42:32;14.60;;;8.10;;
77085;SDS011;66014;53.134;18.006;2023-04-30T00:44:58;14.90;;;7.70;;
77085;SDS011;66014;53.134;18.006;2023-04-30T00:47:23;14.70;;;7.30;;
77085;SDS011;66014;53.134;18.006;2023-04-30T00:49:49;13.10;;;7.90;;
77085;SDS011;66014;53.134;18.006;2023-04-30T00:52:16;10.80;;;6.40;;
77085;SDS011;66014;53.134;18.006;2023-04-30T00:54:42;14.60;;;6.90;;
77085;SDS011;66014;53.134;18.006;2023-04-30T00:57:08;12.60;;;6.60;;
77085;SDS011;66014;53.134;18.006;2023-04-30T01:02:04;12.00;;;6.80;;
77085;SDS011;66014;53.134;18.006;2023-04-30T01:04:30;15.40;;;8.20;;
77085;SDS011;66014;53.134;18.006;2023-04-30T01:06:58;13.20;;;7.70;;
77085;SDS011;66014;53.134;18.006;2023-04-30T01:09:27;18.40;;;7.90;;
77085;SDS011;66014;53.134;18.006;2023-04-30T01:17:16;12.30;;;6.60;;
77085;SDS011;66014;53.134;18.006;2023-04-30T01:19:52;13.10;;;6.60;;
77085;SDS011;66014;53.134;18.006;2023-04-30T01:30:29;12.00;;;6.50;;
77085;SDS011;66014;53.134;18.006;2023-04-30T01:32:57;12.60;;;7.00;;
77085;SDS011;66014;53.134;18.006;2023-04-30T01:46:17;14.50;;;6.50;;
77085;SDS011;66014;53.134;18.006;2023-04-30T01:51:46;11.10;;;6.20;;
77085;SDS011;66014;53.134;18.006;2023-04-30T01:54:22;13.00;;;6.70;;
77085;SDS011;66014;53.134;18.006;2023-04-30T01:59:41;11.70;;;6.00;;
77085;SDS011;66014;53.134;18.006;2023-04-30T02:02:07;13.50;;;7.10;;
77085;SDS011;66014;53.134;18.006;2023-04-30T02:04:33;13.10;;;6.30;;
77085;SDS011;66014;53.134;18.006;2023-04-30T02:06:59;11.00;;;6.40;;
77085;SDS011;66014;53.134;18.006;2023-04-30T02:09:25;13.30;;;6.70;;
77085;SDS011;66014;53.134;18.006;2023-04-30T02:11:51;11.20;;;5.90;;
77085;SDS011;66014;53.134;18.006;2023-04-30T02:14:17;12.40;;;5.80;;
77085;SDS011;66014;53.134;18.006;2023-04-30T02:16:43;13.40;;;5.80;;
77085;SDS011;66014;53.134;18.006;2023-04-30T02:19:09;12.10;;;6.40;;
77085;SDS011;66014;53.134;18.006;2023-04-30T02:21:35;10.80;;;6.60;;
77085;SDS011;66014;53.134;18.006;2023-04-30T02:24:01;13.90;;;6.20;;
77085;SDS011;66014;53.134;18.006;2023-04-30T02:26:28;12.80;;;6.20;;
77085;SDS011;66014;53.134;18.006;2023-04-30T02:28:53;13.00;;;6.60;;
77085;SDS011;66014;53.134;18.006;2023-04-30T02:31:19;11.90;;;6.00;;
77085;SDS011;66014;53.134;18.006;2023-04-30T02:33:45;10.30;;;6.20;;
77085;SDS011;66014;53.134;18.006;2023-04-30T02:36:11;10.90;;;5.90;;
77085;SDS011;66014;53.134;18.006;2023-04-30T02:38:37;13.00;;;6.60;;
77085;SDS011;66014;53.134;18.006;2023-04-30T02:41:03;10.40;;;6.10;;
77085;SDS011;66014;53.134;18.006;2023-04-30T02:43:29;15.00;;;6.80;;
77085;SDS011;66014;53.134;18.006;2023-04-30T02:45:54;11.50;;;6.50;;
77085;SDS011;66014;53.134;18.006;2023-04-30T02:48:21;12.40;;;6.60;;
77085;SDS011;66014;53.134;18.006;2023-04-30T02:50:47;10.80;;;6.40;;
77085;SDS011;66014;53.134;18.006;2023-04-30T02:53:13;12.90;;;6.00;;
77085;SDS011;66014;53.134;18.006;2023-04-30T02:55:39;13.90;;;6.30;;
77085;SDS011;66014;53.134;18.006;2023-04-30T02:58:05;13.70;;;6.20;;
77085;SDS011;66014;53.134;18.006;2023-04-30T03:00:31;12.70;;;6.30;;
77085;SDS011;66014;53.134;18.006;2023-04-30T03:02:57;10.70;;;6.30;;
77085;SDS011;66014;53.134;18.006;2023-04-30T03:05:23;11.60;;;5.80;;
77085;SDS011;66014;53.134;18.006;2023-04-30T03:07:49;11.00;;;5.60;;
77085;SDS011;66014;53.134;18.006;2023-04-30T03:10:15;12.00;;;6.40;;
77085;SDS011;66014;53.134;18.006;2023-04-30T03:12:44;13.60;;;7.10;;
77085;SDS011;66014;53.134;18.006;2023-04-30T03:15:10;14.90;;;6.50;;
77085;SDS011;66014;53.134;18.006;2023-04-30T03:17:36;13.90;;;6.30;;
77085;SDS011;66014;53.134;18.006;2023-04-30T03:20:02;13.00;;;5.80;;
77085;SDS011;66014;53.134;18.006;2023-04-30T03:22:29;11.40;;;6.30;;
77085;SDS011;66014;53.134;18.006;2023-04-30T03:24:57;13.20;;;7.20;;
77085;SDS011;66014;53.134;18.006;2023-04-30T03:27:23;14.40;;;7.70;;
77085;SDS011;66014;53.134;18.006;2023-04-30T03:29:49;13.10;;;6.80;;
77085;SDS011;66014;53.134;18.006;2023-04-30T03:32:14;14.90;;;7.00;;
77085;SDS011;66014;53.134;18.006;2023-04-30T03:34:42;15.60;;;7.90;;
77085;SDS011;66014;53.134;18.006;2023-04-30T03:39:36;18.20;;;8.00;;
77085;SDS011;66014;53.134;18.006;2023-04-30T03:42:02;11.00;;;6.60;;
77085;SDS011;66014;53.134;18.006;2023-04-30T03:44:28;13.30;;;6.30;;
77085;SDS011;66014;53.134;18.006;2023-04-30T03:46:55;13.10;;;6.80;;
77085;SDS011;66014;53.134;18.006;2023-04-30T03:49:21;9.40;;;5.80;;
77085;SDS011;66014;53.134;18.006;2023-04-30T03:51:53;12.80;;;6.90;;
77085;SDS011;66014;53.134;18.006;2023-04-30T03:57:59;13.20;;;6.40;;
77085;SDS011;66014;53.134;18.006;2023-04-30T04:00:25;14.80;;;7.10;;
77085;SDS011;66014;53.134;18.006;2023-04-30T04:03:00;13.60;;;8.00;;
77085;SDS011;66014;53.134;18.006;2023-04-30T04:06:41;13.30;;;7.40;;
77085;SDS011;66014;53.134;18.006;2023-04-30T04:09:07;14.10;;;7.40;;
77085;SDS011;66014;53.134;18.006;2023-04-30T04:11:33;14.70;;;7.30;;
77085;SDS011;66014;53.134;18.006;2023-04-30T04:14:08;14.30;;;7.20;;
77085;SDS011;66014;53.134;18.006;2023-04-30T04:17:25;13.70;;;6.90;;
77085;SDS011;66014;53.134;18.006;2023-04-30T04:19:51;12.30;;;6.20;;
77085;SDS011;66014;53.134;18.006;2023-04-30T04:22:17;13.40;;;6.60;;
77085;SDS011;66014;53.134;18.006;2023-04-30T04:28:40;13.10;;;6.50;;
77085;SDS011;66014;53.134;18.006;2023-04-30T04:31:06;14.40;;;7.20;;
77085;SDS011;66014;53.134;18.006;2023-04-30T04:40:04;10.30;;;5.60;;
77085;SDS011;66014;53.134;18.006;2023-04-30T04:42:30;15.00;;;6.90;;
77085;SDS011;66014;53.134;18.006;2023-04-30T04:45:11;14.00;;;6.60;;
77085;SDS011;66014;53.134;18.006;2023-04-30T04:47:52;10.60;;;5.50;;
77085;SDS011;66014;53.134;18.006;2023-04-30T04:50:33;11.20;;;5.10;;
77085;SDS011;66014;53.134;18.006;2023-04-30T04:53:14;12.00;;;5.60;;
77085;SDS011;66014;53.134;18.006;2023-04-30T04:55:40;10.90;;;5.80;;
77085;SDS011;66014;53.134;18.006;2023-04-30T04:58:06;13.10;;;7.80;;
77085;SDS011;66014;53.134;18.006;2023-04-30T05:00:31;12.70;;;6.40;;
77085;SDS011;66014;53.134;18.006;2023-04-30T05:03:03;17.50;;;8.80;;
77085;SDS011;66014;53.134;18.006;2023-04-30T05:05:30;20.60;;;9.00;;
77085;SDS011;66014;53.134;18.006;2023-04-30T05:07:57;14.00;;;6.80;;
77085;SDS011;66014;53.134;18.006;2023-04-30T05:10:25;15.40;;;7.50;;
77085;SDS011;66014;53.134;18.006;2023-04-30T05:12:51;16.70;;;8.30;;
77085;SDS011;66014;53.134;18.006;2023-04-30T05:15:17;11.50;;;6.10;;
77085;SDS011;66014;53.134;18.006;2023-04-30T05:17:43;11.20;;;5.90;;
77085;SDS011;66014;53.134;18.006;2023-04-30T05:20:09;12.80;;;6.70;;
77085;SDS011;66014;53.134;18.006;2023-04-30T05:22:37;13.10;;;5.80;;
77085;SDS011;66014;53.134;18.006;2023-04-30T05:25:03;13.80;;;5.50;;
77085;SDS011;66014;53.134;18.006;2023-04-30T05:27:30;12.90;;;4.70;;
77085;SDS011;66014;53.134;18.006;2023-04-30T05:29:56;11.30;;;4.00;;
77085;SDS011;66014;53.134;18.006;2023-04-30T05:32:22;5.70;;;2.90;;
77085;SDS011;66014;53.134;18.006;2023-04-30T05:34:48;6.10;;;3.00;;
77085;SDS011;66014;53.134;18.006;2023-04-30T05:37:14;6.30;;;3.10;;
77085;SDS011;66014;53.134;18.006;2023-04-30T05:39:42;7.80;;;2.50;;
77085;SDS011;66014;53.134;18.006;2023-04-30T05:42:08;6.10;;;2.70;;
77085;SDS011;66014;53.134;18.006;2023-04-30T05:44:34;6.80;;;2.40;;
77085;SDS011;66014;53.134;18.006;2023-04-30T05:47:00;7.70;;;2.80;;
77085;SDS011;66014;53.134;18.006;2023-04-30T05:49:26;6.30;;;3.20;;
77085;SDS011;66014;53.134;18.006;2023-04-30T05:51:52;8.80;;;2.60;;
77085;SDS011;66014;53.134;18.006;2023-04-30T05:54:17;6.10;;;2.00;;
77085;SDS011;66014;53.134;18.006;2023-04-30T05:56:43;7.70;;;2.50;;
77085;SDS011;66014;53.134;18.006;2023-04-30T05:59:09;9.10;;;2.70;;
77085;SDS011;66014;53.134;18.006;2023-04-30T06:01:35;11.80;;;2.60;;
77085;SDS011;66014;53.134;18.006;2023-04-30T06:04:02;8.00;;;2.40;;
77085;SDS011;66014;53.134;18.006;2023-04-30T06:06:29;10.90;;;3.90;;
77085;SDS011;66014;53.134;18.006;2023-04-30T06:08:56;8.90;;;2.60;;
77085;SDS011;66014;53.134;18.006;2023-04-30T06:11:22;8.30;;;2.60;;
77085;SDS011;66014;53.134;18.006;2023-04-30T06:13:50;7.60;;;2.20;;
77085;SDS011;66014;53.134;18.006;2023-04-30T06:16:16;5.60;;;1.90;;
77085;SDS011;66014;53.134;18.006;2023-04-30T06:18:42;8.10;;;2.10;;
77085;SDS011;66014;53.134;18.006;2023-04-30T06:21:08;9.00;;;2.30;;
77085;SDS011;66014;53.134;18.006;2023-04-30T06:23:34;7.10;;;2.20;;
77085;SDS011;66014;53.134;18.006;2023-04-30T06:26:02;6.20;;;2.20;;
77085;SDS011;66014;53.134;18.006;2023-04-30T06:28:28;11.60;;;2.30;;
77085;SDS011;66014;53.134;18.006;2023-04-30T06:30:54;6.90;;;2.00;;
77085;SDS011;66014;53.134;18.006;2023-04-30T06:33:20;7.60;;;2.10;;
77085;SDS011;66014;53.134;18.006;2023-04-30T06:35:49;7.20;;;1.90;;
77085;SDS011;66014;53.134;18.006;2023-04-30T06:38:20;12.00;;;5.20;;
77085;SDS011;66014;53.134;18.006;2023-04-30T06:40:46;15.60;;;8.20;;
77085;SDS011;66014;53.134;18.006;2023-04-30T06:43:13;7.00;;;2.70;;
77085;SDS011;66014;53.134;18.006;2023-04-30T06:45:41;4.10;;;1.60;;
77085;SDS011;66014;53.134;18.006;2023-04-30T06:48:07;6.30;;;1.80;;
77085;SDS011;66014;53.134;18.006;2023-04-30T06:50:36;4.90;;;1.70;;
77085;SDS011;66014;53.134;18.006;2023-04-30T06:53:13;7.40;;;2.30;;
77085;SDS011;66014;53.134;18.006;2023-04-30T06:55:40;7.50;;;1.80;;
77085;SDS011;66014;53.134;18.006;2023-04-30T07:05:42;6.60;;;2.00;;
77085;SDS011;66014;53.134;18.006;2023-04-30T07:08:19;8.40;;;3.50;;
77085;SDS011;66014;53.134;18.006;2023-04-30T07:10:46;6.30;;;2.10;;
77085;SDS011;66014;53.134;18.006;2023-04-30T07:13:12;7.20;;;1.60;;
77085;SDS011;66014;53.134;18.006;2023-04-30T07:15:39;7.20;;;1.80;;
77085;SDS011;66014;53.134;18.006;2023-04-30T07:18:07;3.90;;;1.40;;
77085;SDS011;66014;53.134;18.006;2023-04-30T07:20:35;6.20;;;1.70;;
77085;SDS011;66014;53.134;18.006;2023-04-30T07:23:01;4.80;;;1.60;;
77085;SDS011;66014;53.134;18.006;2023-04-30T07:25:28;8.10;;;3.90;;
77085;SDS011;66014;53.134;18.006;2023-04-30T07:27:54;10.80;;;4.50;;
77085;SDS011;66014;53.134;18.006;2023-04-30T07:30:20;5.50;;;1.90;;
77085;SDS011;66014;53.134;18.006;2023-04-30T07:32:52;4.30;;;1.90;;
77085;SDS011;66014;53.134;18.006;2023-04-30T07:35:19;18.50;;;11.70;;
77085;SDS011;66014;53.134;18.006;2023-04-30T07:37:48;20.40;;;13.20;;
77085;SDS011;66014;53.134;18.006;2023-04-30T07:40:32;5.80;;;1.90;;
77085;SDS011;66014;53.134;18.006;2023-04-30T07:46:13;4.00;;;1.90;;
77085;SDS011;66014;53.134;18.006;2023-04-30T07:48:40;3.50;;;1.50;;
77085;SDS011;66014;53.134;18.006;2023-04-30T07:51:06;6.40;;;1.70;;
77085;SDS011;66014;53.134;18.006;2023-04-30T07:53:33;3.50;;;1.20;;
77085;SDS011;66014;53.134;18.006;2023-04-30T07:56:01;5.10;;;1.40;;
77085;SDS011;66014;53.134;18.006;2023-04-30T07:58:33;4.70;;;1.70;;
77085;SDS011;66014;53.134;18.006;2023-04-30T08:01:21;6.60;;;1.80;;
77085;SDS011;66014;53.134;18.006;2023-04-30T08:03:50;4.50;;;1.50;;
77085;SDS011;66014;53.134;18.006;2023-04-30T08:06:16;3.80;;;1.30;;
77085;SDS011;66014;53.134;18.006;2023-04-30T08:08:43;4.10;;;1.20;;
77085;SDS011;66014;53.134;18.006;2023-04-30T08:11:10;4.60;;;2.00;;
77085;SDS011;66014;53.134;18.006;2023-04-30T08:13:46;8.20;;;1.60;;
77085;SDS011;66014;53.134;18.006;2023-04-30T08:16:12;4.90;;;1.80;;
77085;SDS011;66014;53.134;18.006;2023-04-30T08:18:46;6.90;;;4.20;;
77085;SDS011;66014;53.134;18.006;2023-04-30T08:21:21;3.10;;;1.10;;
77085;SDS011;66014;53.134;18.006;2023-04-30T08:23:48;3.90;;;1.60;;
77085;SDS011;66014;53.134;18.006;2023-04-30T08:26:38;6.70;;;1.60;;
77085;SDS011;66014;53.134;18.006;2023-04-30T08:29:15;4.50;;;1.50;;
77085;SDS011;66014;53.134;18.006;2023-04-30T08:31:42;3.80;;;1.30;;
77085;SDS011;66014;53.134;18.006;2023-04-30T08:34:08;5.10;;;1.60;;
77085;SDS011;66014;53.134;18.006;2023-04-30T08:36:35;3.70;;;1.30;;
77085;SDS011;66014;53.134;18.006;2023-04-30T08:39:11;4.60;;;1.30;;
77085;SDS011;66014;53.134;18.006;2023-04-30T08:41:38;3.40;;;1.40;;
77085;SDS011;66014;53.134;18.006;2023-04-30T08:44:05;4.70;;;1.50;;
77085;SDS011;66014;53.134;18.006;2023-04-30T08:46:32;4.90;;;1.70;;
77085;SDS011;66014;53.134;18.006;2023-04-30T08:49:19;4.70;;;1.40;;
77085;SDS011;66014;53.134;18.006;2023-04-30T08:51:51;4.40;;;1.40;;
77085;SDS011;66014;53.134;18.006;2023-04-30T08:54:18;6.20;;;3.20;;
77085;SDS011;66014;53.134;18.006;2023-04-30T08:56:44;4.70;;;2.30;;
77085;SDS011;66014;53.134;18.006;2023-04-30T08:59:11;4.00;;;1.70;;
77085;SDS011;66014;53.134;18.006;2023-04-30T09:01:39;3.40;;;1.60;;
77085;SDS011;66014;53.134;18.006;2023-04-30T09:04:12;6.80;;;4.00;;
77085;SDS011;66014;53.134;18.006;2023-04-30T09:06:53;4.60;;;2.10;;
77085;SDS011;66014;53.134;18.006;2023-04-30T09:09:29;6.70;;;3.90;;
77085;SDS011;66014;53.134;18.006;2023-04-30T09:12:13;4.90;;;2.40;;
77085;SDS011;66014;53.134;18.006;2023-04-30T09:17:27;3.20;;;1.50;;
77085;SDS011;66014;53.134;18.006;2023-04-30T09:19:54;4.00;;;1.80;;
77085;SDS011;66014;53.134;18.006;2023-04-30T09:22:33;4.80;;;2.00;;
77085;SDS011;66014;53.134;18.006;2023-04-30T09:25:01;4.30;;;1.50;;
77085;SDS011;66014;53.134;18.006;2023-04-30T09:27:33;4.20;;;1.70;;
77085;SDS011;66014;53.134;18.006;2023-04-30T09:30:01;3.80;;;1.60;;
77085;SDS011;66014;53.134;18.006;2023-04-30T09:32:28;4.60;;;1.90;;
77085;SDS011;66014;53.134;18.006;2023-04-30T09:34:54;6.10;;;1.90;;
77085;SDS011;66014;53.134;18.006;2023-04-30T09:37:21;4.10;;;1.60;;
77085;SDS011;66014;53.134;18.006;2023-04-30T09:40:01;6.90;;;1.90;;
77085;SDS011;66014;53.134;18.006;2023-04-30T09:42:29;4.60;;;1.80;;
77085;SDS011;66014;53.134;18.006;2023-04-30T09:44:57;2.90;;;1.40;;
77085;SDS011;66014;53.134;18.006;2023-04-30T09:47:28;7.20;;;3.40;;
77085;SDS011;66014;53.134;18.006;2023-04-30T09:49:59;4.80;;;2.20;;
77085;SDS011;66014;53.134;18.006;2023-04-30T09:52:25;3.10;;;1.20;;
77085;SDS011;66014;53.134;18.006;2023-04-30T09:54:52;4.10;;;1.90;;
77085;SDS011;66014;53.134;18.006;2023-04-30T09:57:20;4.10;;;1.40;;
77085;SDS011;66014;53.134;18.006;2023-04-30T09:59:49;4.70;;;1.20;;
77085;SDS011;66014;53.134;18.006;2023-04-30T10:05:05;3.10;;;1.20;;
77085;SDS011;66014;53.134;18.006;2023-04-30T10:07:33;2.30;;;1.20;;
77085;SDS011;66014;53.134;18.006;2023-04-30T10:10:07;5.40;;;1.80;;
77085;SDS011;66014;53.134;18.006;2023-04-30T10:12:41;6.10;;;2.30;;
77085;SDS011;66014;53.134;18.006;2023-04-30T10:17:59;4.20;;;1.50;;
77085;SDS011;66014;53.134;18.006;2023-04-30T10:20:27;4.00;;;2.00;;
77085;SDS011;66014;53.134;18.006;2023-04-30T10:25:22;4.30;;;1.20;;
77085;SDS011;66014;53.134;18.006;2023-04-30T10:27:50;4.50;;;1.40;;
77085;SDS011;66014;53.134;18.006;2023-04-30T10:30:16;5.20;;;1.80;;
77085;SDS011;66014;53.134;18.006;2023-04-30T10:32:57;3.60;;;1.40;;
77085;SDS011;66014;53.134;18.006;2023-04-30T10:35:55;3.80;;;1.60;;
77085;SDS011;66014;53.134;18.006;2023-04-30T10:38:31;5.40;;;1.40;;
77085;SDS011;66014;53.134;18.006;2023-04-30T10:41:05;5.60;;;2.00;;
77085;SDS011;66014;53.134;18.006;2023-04-30T10:43:34;3.30;;;1.50;;
77085;SDS011;66014;53.134;18.006;2023-04-30T10:46:01;4.80;;;1.40;;
77085;SDS011;66014;53.134;18.006;2023-04-30T10:48:28;6.40;;;1.70;;
77085;SDS011;66014;53.134;18.006;2023-04-30T10:50:59;5.10;;;2.00;;
77085;SDS011;66014;53.134;18.006;2023-04-30T10:53:25;3.70;;;1.60;;
77085;SDS011;66014;53.134;18.006;2023-04-30T10:56:01;4.60;;;2.00;;
77085;SDS011;66014;53.134;18.006;2023-04-30T11:00:59;5.40;;;2.40;;
77085;SDS011;66014;53.134;18.006;2023-04-30T11:03:27;4.10;;;1.60;;
77085;SDS011;66014;53.134;18.006;2023-04-30T11:05:54;4.50;;;1.80;;
77085;SDS011;66014;53.134;18.006;2023-04-30T11:08:33;4.30;;;1.50;;
77085;SDS011;66014;53.134;18.006;2023-04-30T11:11:02;5.60;;;2.00;;
77085;SDS011;66014;53.134;18.006;2023-04-30T11:13:45;5.50;;;1.80;;
77085;SDS011;66014;53.134;18.006;2023-04-30T11:16:16;5.40;;;1.60;;
77085;SDS011;66014;53.134;18.006;2023-04-30T11:18:44;4.70;;;1.50;;
77085;SDS011;66014;53.134;18.006;2023-04-30T11:21:11;4.40;;;1.70;;
77085;SDS011;66014;53.134;18.006;2023-04-30T11:23:41;4.30;;;1.70;;
77085;SDS011;66014;53.134;18.006;2023-04-30T11:26:08;3.70;;;1.80;;
77085;SDS011;66014;53.134;18.006;2023-04-30T11:28:35;5.20;;;1.80;;
77085;SDS011;66014;53.134;18.006;2023-04-30T11:31:02;6.80;;;2.30;;
77085;SDS011;66014;53.134;18.006;2023-04-30T11:33:29;4.00;;;1.70;;
77085;SDS011;66014;53.134;18.006;2023-04-30T11:35:57;3.90;;;1.50;;
77085;SDS011;66014;53.134;18.006;2023-04-30T11:38:35;4.80;;;1.80;;
77085;SDS011;66014;53.134;18.006;2023-04-30T11:41:02;5.70;;;1.80;;
77085;SDS011;66014;53.134;18.006;2023-04-30T11:43:29;4.20;;;1.60;;
77085;SDS011;66014;53.134;18.006;2023-04-30T11:46:09;4.50;;;2.10;;
77085;SDS011;66014;53.134;18.006;2023-04-30T11:48:37;2.90;;;1.50;;
77085;SDS011;66014;53.134;18.006;2023-04-30T11:51:05;4.00;;;2.10;;
77085;SDS011;66014;53.134;18.006;2023-04-30T11:53:41;4.50;;;1.90;;
77085;SDS011;66014;53.134;18.006;2023-04-30T11:56:08;3.40;;;1.60;;
77085;SDS011;66014;53.134;18.006;2023-04-30T11:58:35;4.30;;;1.60;;
77085;SDS011;66014;53.134;18.006;2023-04-30T12:01:07;3.40;;;1.70;;
77085;SDS011;66014;53.134;18.006;2023-04-30T12:03:45;3.40;;;1.60;;
77085;SDS011;66014;53.134;18.006;2023-04-30T12:06:22;3.60;;;1.70;;
77085;SDS011;66014;53.134;18.006;2023-04-30T12:09:03;4.50;;;1.70;;
77085;SDS011;66014;53.134;18.006;2023-04-30T12:11:34;4.20;;;1.80;;
77085;SDS011;66014;53.134;18.006;2023-04-30T12:14:01;4.40;;;2.20;;
77085;SDS011;66014;53.134;18.006;2023-04-30T12:16:48;5.00;;;1.60;;
77085;SDS011;66014;53.134;18.006;2023-04-30T12:19:19;3.50;;;1.40;;
77085;SDS011;66014;53.134;18.006;2023-04-30T12:21:47;3.60;;;1.50;;
77085;SDS011;66014;53.134;18.006;2023-04-30T12:24:16;4.50;;;1.70;;
77085;SDS011;66014;53.134;18.006;2023-04-30T12:26:43;5.60;;;1.80;;
77085;SDS011;66014;53.134;18.006;2023-04-30T12:29:10;3.40;;;1.70;;
77085;SDS011;66014;53.134;18.006;2023-04-30T12:31:41;4.10;;;1.60;;
77085;SDS011;66014;53.134;18.006;2023-04-30T12:34:09;4.40;;;1.60;;
77085;SDS011;66014;53.134;18.006;2023-04-30T12:36:37;3.80;;;1.40;;
77085;SDS011;66014;53.134;18.006;2023-04-30T12:39:15;3.70;;;1.70;;
77085;SDS011;66014;53.134;18.006;2023-04-30T12:41:45;3.80;;;1.40;;
77085;SDS011;66014;53.134;18.006;2023-04-30T12:44:17;3.30;;;1.40;;
77085;SDS011;66014;53.134;18.006;2023-04-30T12:46:44;3.50;;;1.80;;
77085;SDS011;66014;53.134;18.006;2023-04-30T12:49:11;6.00;;;1.60;;
77085;SDS011;66014;53.134;18.006;2023-04-30T12:51:41;3.50;;;1.40;;
77085;SDS011;66014;53.134;18.006;2023-04-30T13:00:05;4.30;;;2.10;;
77085;SDS011;66014;53.134;18.006;2023-04-30T13:02:33;4.50;;;1.90;;
77085;SDS011;66014;53.134;18.006;2023-04-30T13:04:59;3.40;;;1.60;;
77085;SDS011;66014;53.134;18.006;2023-04-30T13:07:37;4.70;;;2.00;;
77085;SDS011;66014;53.134;18.006;2023-04-30T13:13:14;5.50;;;2.40;;
77085;SDS011;66014;53.134;18.006;2023-04-30T13:15:41;4.30;;;1.50;;
77085;SDS011;66014;53.134;18.006;2023-04-30T13:18:08;4.80;;;1.80;;
77085;SDS011;66014;53.134;18.006;2023-04-30T13:20:34;4.70;;;1.80;;
77085;SDS011;66014;53.134;18.006;2023-04-30T13:23:04;3.50;;;1.40;;
77085;SDS011;66014;53.134;18.006;2023-04-30T13:25:31;4.90;;;2.00;;
77085;SDS011;66014;53.134;18.006;2023-04-30T13:27:58;4.10;;;1.80;;
77085;SDS011;66014;53.134;18.006;2023-04-30T13:30:24;6.00;;;2.00;;
77085;SDS011;66014;53.134;18.006;2023-04-30T13:32:50;4.90;;;2.00;;
77085;SDS011;66014;53.134;18.006;2023-04-30T13:35:17;4.20;;;1.70;;
77085;SDS011;66014;53.134;18.006;2023-04-30T13:37:43;4.40;;;1.60;;
77085;SDS011;66014;53.134;18.006;2023-04-30T13:40:09;4.70;;;2.10;;
77085;SDS011;66014;53.134;18.006;2023-04-30T13:42:36;4.30;;;1.70;;
77085;SDS011;66014;53.134;18.006;2023-04-30T13:45:06;4.30;;;1.90;;
77085;SDS011;66014;53.134;18.006;2023-04-30T13:47:34;4.20;;;1.50;;
77085;SDS011;66014;53.134;18.006;2023-04-30T13:50:01;4.80;;;1.50;;
77085;SDS011;66014;53.134;18.006;2023-04-30T13:52:27;4.40;;;1.70;;
77085;SDS011;66014;53.134;18.006;2023-04-30T13:54:53;4.80;;;1.70;;
77085;SDS011;66014;53.134;18.006;2023-04-30T13:57:19;3.70;;;1.60;;
77085;SDS011;66014;53.134;18.006;2023-04-30T13:59:45;4.30;;;1.40;;
77085;SDS011;66014;53.134;18.006;2023-04-30T14:02:11;8.80;;;6.20;;
77085;SDS011;66014;53.134;18.006;2023-04-30T14:04:37;5.00;;;2.20;;
77085;SDS011;66014;53.134;18.006;2023-04-30T14:07:02;4.80;;;1.90;;
77085;SDS011;66014;53.134;18.006;2023-04-30T14:09:29;4.10;;;1.40;;
77085;SDS011;66014;53.134;18.006;2023-04-30T14:11:55;5.30;;;1.70;;
77085;SDS011;66014;53.134;18.006;2023-04-30T14:14:24;6.90;;;2.70;;
77085;SDS011;66014;53.134;18.006;2023-04-30T14:16:52;4.70;;;1.40;;
77085;SDS011;66014;53.134;18.006;2023-04-30T14:19:20;4.70;;;1.40;;
77085;SDS011;66014;53.134;18.006;2023-04-30T14:21:47;4.60;;;1.40;;
77085;SDS011;66014;53.134;18.006;2023-04-30T14:24:13;3.20;;;1.30;;
77085;SDS011;66014;53.134;18.006;2023-04-30T14:26:41;4.20;;;1.50;;
77085;SDS011;66014;53.134;18.006;2023-04-30T14:29:07;3.80;;;1.90;;
77085;SDS011;66014;53.134;18.006;2023-04-30T14:31:34;5.50;;;1.80;;
77085;SDS011;66014;53.134;18.006;2023-04-30T14:33:59;3.30;;;1.40;;
77085;SDS011;66014;53.134;18.006;2023-04-30T14:36:25;4.70;;;1.70;;
77085;SDS011;66014;53.134;18.006;2023-04-30T14:38:52;3.20;;;1.50;;
77085;SDS011;66014;53.134;18.006;2023-04-30T14:41:19;3.90;;;1.80;;
77085;SDS011;66014;53.134;18.006;2023-04-30T14:43:45;5.20;;;2.00;;
77085;SDS011;66014;53.134;18.006;2023-04-30T14:46:12;2.80;;;1.30;;
77085;SDS011;66014;53.134;18.006;2023-04-30T14:48:38;3.80;;;1.60;;
77085;SDS011;66014;53.134;18.006;2023-04-30T14:51:04;5.30;;;1.70;;
77085;SDS011;66014;53.134;18.006;2023-04-30T14:53:30;10.30;;;4.50;;
77085;SDS011;66014;53.134;18.006;2023-04-30T14:55:57;4.20;;;1.70;;
77085;SDS011;66014;53.134;18.006;2023-04-30T14:58:25;4.20;;;1.40;;
77085;SDS011;66014;53.134;18.006;2023-04-30T15:00:50;4.90;;;1.40;;
77085;SDS011;66014;53.134;18.006;2023-04-30T15:03:17;3.80;;;1.40;;
77085;SDS011;66014;53.134;18.006;2023-04-30T15:05:42;6.40;;;1.70;;
77085;SDS011;66014;53.134;18.006;2023-04-30T15:08:08;5.00;;;2.00;;
77085;SDS011;66014;53.134;18.006;2023-04-30T15:10:34;3.40;;;1.50;;
77085;SDS011;66014;53.134;18.006;2023-04-30T15:13:03;3.60;;;1.70;;
77085;SDS011;66014;53.134;18.006;2023-04-30T15:15:30;6.40;;;2.20;;
77085;SDS011;66014;53.134;18.006;2023-04-30T15:17:56;6.00;;;1.70;;
77085;SDS011;66014;53.134;18.006;2023-04-30T15:20:24;5.90;;;1.70;;
77085;SDS011;66014;53.134;18.006;2023-04-30T15:22:50;6.40;;;2.40;;
77085;SDS011;66014;53.134;18.006;2023-04-30T15:25:18;4.40;;;1.80;;
77085;SDS011;66014;53.134;18.006;2023-04-30T15:27:45;4.70;;;1.50;;
77085;SDS011;66014;53.134;18.006;2023-04-30T15:30:12;5.50;;;2.00;;
77085;SDS011;66014;53.134;18.006;2023-04-30T15:32:38;4.60;;;1.60;;
77085;SDS011;66014;53.134;18.006;2023-04-30T15:35:04;5.30;;;1.60;;
77085;SDS011;66014;53.134;18.006;2023-04-30T15:37:31;4.60;;;1.60;;
77085;SDS011;66014;53.134;18.006;2023-04-30T15:39:59;4.60;;;1.40;;
77085;SDS011;66014;53.134;18.006;2023-04-30T15:42:25;5.30;;;1.60;;
77085;SDS011;66014;53.134;18.006;2023-04-30T15:44:51;4.60;;;1.50;;
77085;SDS011;66014;53.134;18.006;2023-04-30T15:47:17;6.20;;;2.10;;
77085;SDS011;66014;53.134;18.006;2023-04-30T15:49:44;8.60;;;2.50;;
77085;SDS011;66014;53.134;18.006;2023-04-30T15:52:10;6.40;;;2.40;;
77085;SDS011;66014;53.134;18.006;2023-04-30T15:54:37;5.10;;;1.60;;
77085;SDS011;66014;53.134;18.006;2023-04-30T15:57:02;3.10;;;1.60;;
77085;SDS011;66014;53.134;18.006;2023-04-30T15:59:28;3.70;;;1.70;;
77085;SDS011;66014;53.134;18.006;2023-04-30T16:01:54;4.90;;;1.70;;